createdAt,value
2018-02-01T00:01:43.368Z,19.12
2018-02-01T00:04:14.563Z,17.90
2018-02-01T00:06:43.560Z,14.98
2018-02-01T00:09:13.332Z,15.55
2018-02-01T00:11:42.261Z,16.58
2018-02-01T00:14:12.107Z,15.60
2018-02-01T00:16:43.477Z,19.73
2018-02-01T00:19:13.157Z,21.12
2018-02-01T00:21:42.232Z,15.68
2018-02-01T00:24:11.210Z,20.30
2018-02-01T00:26:40.200Z,20.10
2018-02-01T00:29:09.121Z,17.77
2018-02-01T00:37:40.055Z,16.83
2018-02-01T00:40:08.895Z,18.85
2018-02-01T00:42:38.936Z,17.27
2018-02-01T00:45:08.010Z,16.20
2018-02-01T00:47:37.000Z,15.05
2018-02-01T00:50:07.014Z,18.90
2018-02-01T00:52:36.055Z,17.77
2018-02-01T00:55:05.209Z,19.12
2018-02-01T00:57:34.405Z,20.02
2018-02-01T01:00:05.888Z,16.40
2018-02-01T01:02:35.029Z,16.58
2018-02-01T01:05:04.634Z,15.70
2018-02-01T01:07:33.640Z,15.40
2018-02-01T01:10:03.379Z,16.48
2018-02-01T01:12:33.217Z,20.92
2018-02-01T01:15:04.154Z,28.45
2018-02-01T01:17:33.116Z,25.50
2018-02-01T01:20:01.928Z,24.75
2018-02-01T01:22:34.482Z,19.58
2018-02-01T01:25:03.576Z,21.75
2018-02-01T01:27:32.568Z,17.40
2018-02-01T01:30:02.623Z,15.20
2018-02-01T01:32:31.512Z,14.27
2018-02-01T01:35:00.432Z,15.63
2018-02-01T01:37:31.206Z,15.10
2018-02-01T01:40:00.300Z,15.93
2018-02-01T01:42:29.195Z,18.27
2018-02-01T01:45:00.842Z,18.92
2018-02-01T01:47:29.771Z,16.73
2018-02-01T01:49:58.665Z,16.37
2018-02-01T01:52:29.544Z,17.83
2018-02-01T01:54:58.601Z,17.08
2018-02-01T01:57:27.660Z,16.85
2018-02-01T01:59:56.796Z,14.07
2018-02-01T02:02:25.846Z,13.95
2018-02-01T02:04:55.668Z,14.18
2018-02-01T02:07:26.360Z,14.32
2018-02-01T02:09:55.600Z,13.98
2018-02-01T02:12:26.215Z,15.57
2018-02-01T02:14:57.790Z,16.45
2018-02-01T02:17:27.183Z,14.63
2018-02-01T02:19:57.203Z,16.40
2018-02-01T02:22:27.636Z,15.35
2018-02-01T02:24:57.753Z,15.98
2018-02-01T02:27:27.683Z,14.65
2018-02-01T02:29:57.478Z,12.37
2018-02-01T02:32:27.494Z,12.85
2018-02-01T02:34:59.969Z,13.35
2018-02-01T02:37:29.069Z,13.10
2018-02-01T02:39:58.202Z,13.13
2018-02-01T02:42:28.627Z,11.77
2018-02-01T02:44:57.624Z,11.85
2018-02-01T02:47:26.612Z,10.90
2018-02-01T02:49:56.437Z,13.65
2018-02-01T02:52:25.337Z,12.40
2018-02-01T02:54:54.888Z,12.50
2018-02-01T02:57:24.909Z,11.73
2018-02-01T02:59:55.643Z,11.32
2018-02-01T03:02:24.666Z,10.82
2018-02-01T03:04:56.086Z,11.38
2018-02-01T03:07:26.207Z,11.90
2018-02-01T03:09:56.392Z,13.50
2018-02-01T03:12:25.402Z,10.70
2018-02-01T03:14:54.515Z,11.20
2018-02-01T03:17:23.825Z,12.02
2018-02-01T03:19:53.766Z,15.07
2018-02-01T03:22:23.547Z,14.43
2018-02-01T03:24:53.362Z,16.67
2018-02-01T03:27:22.352Z,12.85
2018-02-01T03:29:53.633Z,12.13
2018-02-01T03:32:25.359Z,12.90
2018-02-01T03:34:55.070Z,15.15
2018-02-01T03:37:24.092Z,12.40
2018-02-01T03:39:54.010Z,13.15
2018-02-01T03:42:23.071Z,11.57
2018-02-01T03:44:54.999Z,11.70
2018-02-01T03:47:24.064Z,11.05
2018-02-01T03:49:53.129Z,10.40
2018-02-01T03:52:22.210Z,10.68
2018-02-01T03:54:51.333Z,11.23
2018-02-01T03:57:23.221Z,11.20
2018-02-01T03:59:52.274Z,11.00
2018-02-01T04:02:22.393Z,11.73
2018-02-01T04:04:51.592Z,22.27
2018-02-01T04:07:22.299Z,22.98
2018-02-01T04:09:51.244Z,23.17
2018-02-01T04:12:37.535Z,26.17
2018-02-01T04:15:06.737Z,26.73
2018-02-01T04:17:35.764Z,28.08
2018-02-01T04:20:05.649Z,21.55
2018-02-01T04:22:35.667Z,18.15
2018-02-01T04:25:04.765Z,18.75
2018-02-01T04:27:35.557Z,16.77
2018-02-01T04:30:04.685Z,16.83
2018-02-01T04:32:34.351Z,15.63
2018-02-01T04:35:04.997Z,16.30
2018-02-01T04:37:34.037Z,14.85
2018-02-01T04:40:02.917Z,17.08
2018-02-01T04:42:32.735Z,16.12
2018-02-01T04:45:01.911Z,14.38
2018-02-01T04:47:30.822Z,16.10
2018-02-01T04:50:01.416Z,15.27
2018-02-01T04:52:30.412Z,15.38
2018-02-01T04:54:59.374Z,16.08
2018-02-01T04:57:29.360Z,19.65
2018-02-01T04:59:58.352Z,17.87
2018-02-01T05:02:28.370Z,21.02
2018-02-01T05:04:59.251Z,23.83
2018-02-01T05:07:28.436Z,28.12
2018-02-01T05:09:57.361Z,28.50
2018-02-01T05:12:27.285Z,25.40
2018-02-01T05:14:56.275Z,28.60
2018-02-01T05:17:26.116Z,35.00
2018-02-01T05:20:01.659Z,29.63
2018-02-01T05:22:30.865Z,29.52
2018-02-01T05:25:03.339Z,32.53
2018-02-01T05:27:32.639Z,39.03
2018-02-01T05:30:01.735Z,33.33
2018-02-01T05:32:32.468Z,32.58
2018-02-01T05:35:02.368Z,40.30
2018-02-01T05:37:31.483Z,33.58
2018-02-01T05:40:01.540Z,32.83
2018-02-01T05:42:30.721Z,33.03
2018-02-01T05:44:59.795Z,35.17
2018-02-01T05:47:29.097Z,34.25
2018-02-01T05:49:59.853Z,32.55
2018-02-01T05:52:29.546Z,41.42
2018-02-01T05:54:58.537Z,34.17
2018-02-01T05:57:27.528Z,29.63
2018-02-01T05:59:58.338Z,26.95
2018-02-01T06:02:28.141Z,26.83
2018-02-01T06:04:58.197Z,35.47
2018-02-01T06:07:28.239Z,27.37
2018-02-01T06:09:57.233Z,27.00
2018-02-01T06:12:26.401Z,22.97
2018-02-01T06:14:57.177Z,28.00
2018-02-01T06:17:26.327Z,28.27
2018-02-01T06:19:55.327Z,25.50
2018-02-01T06:22:26.064Z,25.00
2018-02-01T06:24:55.262Z,23.73
2018-02-01T06:27:24.360Z,26.10
2018-02-01T06:29:55.191Z,26.67
2018-02-01T06:32:24.121Z,30.70
2018-02-01T06:34:53.105Z,32.80
2018-02-01T06:37:22.104Z,33.43
2018-02-01T06:39:51.131Z,29.00
2018-02-01T06:42:21.235Z,18.67
2018-02-01T06:44:50.439Z,17.47
2018-02-01T06:47:19.537Z,16.60
2018-02-01T06:49:49.500Z,16.23
2018-02-01T06:52:19.574Z,12.90
2018-02-01T06:54:49.440Z,13.87
2018-02-01T06:57:18.324Z,14.80
2018-02-01T06:59:48.069Z,14.70
2018-02-01T07:02:18.145Z,13.80
2018-02-01T07:04:48.068Z,11.10
2018-02-01T07:07:17.237Z,13.33
2018-02-01T07:09:46.264Z,12.27
2018-02-01T07:12:17.843Z,13.03
2018-02-01T07:14:49.469Z,14.47
2018-02-01T07:17:18.499Z,11.10
2018-02-01T07:19:47.384Z,9.43
2018-02-01T07:22:20.415Z,9.90
2018-02-01T07:24:49.370Z,9.80
2018-02-01T07:27:18.163Z,10.03
2018-02-01T07:29:48.812Z,10.10
2018-02-01T07:32:17.755Z,8.97
2018-02-01T07:34:47.948Z,8.97
2018-02-01T07:37:21.501Z,9.60
2018-02-01T07:39:50.467Z,10.00
2018-02-01T07:42:20.901Z,8.90
2018-02-01T07:44:51.503Z,9.97
2018-02-01T07:47:21.452Z,10.10
2018-02-01T07:49:50.457Z,9.30
2018-02-01T07:52:22.523Z,8.77
2018-02-01T07:54:51.373Z,8.20
2018-02-01T07:57:20.235Z,8.23
2018-02-01T07:59:49.096Z,8.70
2018-02-01T08:02:17.926Z,7.43
2018-02-01T08:04:46.717Z,7.10
2018-02-01T08:07:16.386Z,6.90
2018-02-01T08:09:45.456Z,6.53
2018-02-01T08:12:14.240Z,8.17
2018-02-01T08:14:43.317Z,7.47
2018-02-01T08:17:12.165Z,8.60
2018-02-01T08:19:41.059Z,8.30
2018-02-01T08:22:10.853Z,8.70
2018-02-01T08:24:39.781Z,6.77
2018-02-01T08:27:08.645Z,7.37
2018-02-01T08:29:38.401Z,7.20
2018-02-01T08:32:07.212Z,8.53
2018-02-01T08:34:36.158Z,7.90
2018-02-01T08:37:05.394Z,8.63
2018-02-01T08:39:34.288Z,9.10
2018-02-01T08:42:03.219Z,7.57
2018-02-01T08:44:32.894Z,6.67
2018-02-01T08:47:01.709Z,6.80
2018-02-01T08:49:30.577Z,7.63
2018-02-01T08:52:00.378Z,8.13
2018-02-01T08:54:29.227Z,8.17
2018-02-01T08:56:58.148Z,9.60
2018-02-01T08:59:26.981Z,8.17
2018-02-01T09:01:55.842Z,8.77
2018-02-01T09:04:24.722Z,8.60
2018-02-01T09:06:53.566Z,7.67
2018-02-01T09:09:22.372Z,8.37
2018-02-01T09:11:51.188Z,7.87
2018-02-01T09:14:21.212Z,8.67
2018-02-01T09:16:50.028Z,8.93
2018-02-01T09:19:18.883Z,7.80
2018-02-01T09:21:47.847Z,9.07
2018-02-01T09:24:16.705Z,9.37
2018-02-01T09:26:45.786Z,8.33
2018-02-01T09:29:14.715Z,8.37
2018-02-01T09:31:43.597Z,9.70
2018-02-01T09:34:12.558Z,10.20
2018-02-01T09:36:44.012Z,10.20
2018-02-01T09:39:12.809Z,10.10
2018-02-01T09:45:16.004Z,10.13
2018-02-01T09:47:44.816Z,11.60
2018-02-01T09:50:13.535Z,11.20
2018-02-01T09:52:42.389Z,9.70
2018-02-01T09:55:11.373Z,11.57
2018-02-01T09:57:40.133Z,11.40
2018-02-01T10:00:09.330Z,10.60
2018-02-01T10:02:38.215Z,12.10
2018-02-01T10:05:07.134Z,10.13
2018-02-01T10:07:40.529Z,13.50
2018-02-01T10:10:09.422Z,15.37
2018-02-01T10:12:38.339Z,12.63
2018-02-01T10:15:07.379Z,13.70
2018-02-01T10:17:36.437Z,12.50
2018-02-01T10:20:05.251Z,11.73
2018-02-01T10:22:35.037Z,12.63
2018-02-01T10:25:03.851Z,11.40
2018-02-01T10:27:32.681Z,11.10
2018-02-01T10:30:02.391Z,12.10
2018-02-01T10:32:31.158Z,12.70
2018-02-01T10:35:00.053Z,13.03
2018-02-01T10:37:28.916Z,12.67
2018-02-01T10:39:57.682Z,12.40
2018-02-01T10:42:26.491Z,13.50
2018-02-01T10:44:56.971Z,12.80
2018-02-01T10:47:25.971Z,14.07
2018-02-01T10:49:54.835Z,14.00
2018-02-01T10:52:24.566Z,13.53
2018-02-01T10:54:53.473Z,13.53
2018-02-01T10:57:22.286Z,13.00
2018-02-01T10:59:53.008Z,13.73
2018-02-01T11:02:21.812Z,13.13
2018-02-01T11:04:50.637Z,14.80
2018-02-01T11:07:21.141Z,14.20
2018-02-01T11:09:49.935Z,14.50
2018-02-01T11:12:18.664Z,13.40
2018-02-01T11:14:47.620Z,12.80
2018-02-01T11:17:21.871Z,13.10
2018-02-01T11:19:51.276Z,12.43
2018-02-01T11:22:20.069Z,13.00
2018-02-01T11:24:48.823Z,10.63
2018-02-01T11:27:19.786Z,12.47
2018-02-01T11:29:48.648Z,10.73
2018-02-01T11:32:17.468Z,11.40
2018-02-01T11:34:46.324Z,10.90
2018-02-01T11:37:15.118Z,10.37
2018-02-01T11:39:43.993Z,10.23
2018-02-01T11:42:12.853Z,9.37
2018-02-01T11:44:41.728Z,10.70
2018-02-01T11:47:10.682Z,9.20
2018-02-01T11:49:39.609Z,9.17
2018-02-01T11:52:08.383Z,9.43
2018-02-01T11:54:37.362Z,8.37
2018-02-01T11:57:08.072Z,9.40
2018-02-01T11:59:36.988Z,9.27
2018-02-01T12:02:05.872Z,8.43
2018-02-01T12:04:34.817Z,8.80
2018-02-01T12:07:03.621Z,7.70
2018-02-01T12:09:32.347Z,8.50
2018-02-01T12:12:01.093Z,7.70
2018-02-01T12:14:29.874Z,8.93
2018-02-01T12:16:58.626Z,8.90
2018-02-01T12:19:30.017Z,8.97
2018-02-01T12:21:58.992Z,8.43
2018-02-01T12:24:27.845Z,9.17
2018-02-01T12:26:58.660Z,9.60
2018-02-01T12:29:27.392Z,7.90
2018-02-01T12:31:56.107Z,8.67
2018-02-01T12:34:29.097Z,8.17
2018-02-01T12:36:58.835Z,8.90
2018-02-01T12:39:27.576Z,8.13
2018-02-01T12:41:59.316Z,8.33
2018-02-01T12:44:28.079Z,7.43
2018-02-01T12:46:56.979Z,9.23
2018-02-01T12:49:30.105Z,8.83
2018-02-01T12:51:58.851Z,8.10
2018-02-01T12:54:27.868Z,7.50
2018-02-01T12:57:01.096Z,7.57
2018-02-01T12:59:30.547Z,8.73
2018-02-01T13:01:59.346Z,8.10
2018-02-01T13:04:29.911Z,8.43
2018-02-01T13:06:58.673Z,8.20
2018-02-01T13:09:28.429Z,8.33
2018-02-01T13:11:59.702Z,8.90
2018-02-01T13:14:28.433Z,9.00
2018-02-01T13:16:57.161Z,9.40
2018-02-01T13:19:26.962Z,9.40
2018-02-01T13:21:55.752Z,10.30
2018-02-01T13:24:24.574Z,8.50
2018-02-01T13:26:53.349Z,8.00
2018-02-01T13:29:22.097Z,9.47
2018-02-01T13:31:50.818Z,9.00
2018-02-01T13:34:23.348Z,10.03
2018-02-01T13:36:52.127Z,10.43
2018-02-01T13:39:20.952Z,11.83
2018-02-01T13:41:50.627Z,10.23
2018-02-01T13:44:19.485Z,12.20
2018-02-01T13:46:48.255Z,10.90
2018-02-01T13:49:17.125Z,11.50
2018-02-01T13:51:45.901Z,11.03
2018-02-01T13:54:14.784Z,11.53
2018-02-01T13:56:44.621Z,11.77
2018-02-01T13:59:13.421Z,10.83
2018-02-01T14:01:42.194Z,13.13
2018-02-01T14:04:12.061Z,12.27
2018-02-01T14:06:40.841Z,12.47
2018-02-01T14:09:09.617Z,12.80
2018-02-01T14:11:38.666Z,13.20
2018-02-01T14:14:07.401Z,11.87
2018-02-01T14:16:36.186Z,12.40
2018-02-01T14:19:06.695Z,13.93
2018-02-01T14:21:35.721Z,15.60
2018-02-01T14:24:04.593Z,14.87
2018-02-01T14:26:34.286Z,15.17
2018-02-01T14:29:03.044Z,13.33
2018-02-01T14:31:31.792Z,13.80
2018-02-01T14:34:00.657Z,15.60
2018-02-01T14:36:29.454Z,15.37
2018-02-01T14:38:58.250Z,16.33
2018-02-01T14:41:27.879Z,18.23
2018-02-01T14:43:56.654Z,18.80
2018-02-01T14:46:26.187Z,17.40
2018-02-01T14:48:57.287Z,19.90
2018-02-01T14:51:26.222Z,23.40
2018-02-01T14:53:55.142Z,18.10
2018-02-01T14:56:24.060Z,20.00
2018-02-01T14:58:52.831Z,17.57
2018-02-01T15:01:21.726Z,16.73
2018-02-01T15:03:50.476Z,16.17
2018-02-01T15:06:19.224Z,17.17
2018-02-01T15:08:48.082Z,18.07
2018-02-01T15:11:18.188Z,19.97
2018-02-01T15:13:46.985Z,20.10
2018-02-01T15:16:15.845Z,18.97
2018-02-01T15:18:46.472Z,19.50
2018-02-01T15:21:17.629Z,18.40
2018-02-01T15:23:46.367Z,18.27
2018-02-01T15:26:15.155Z,22.33
2018-02-01T15:28:43.881Z,25.80
2018-02-01T15:31:12.625Z,26.57
2018-02-01T15:33:43.132Z,37.70
2018-02-01T15:36:11.925Z,28.77
2018-02-01T15:38:40.704Z,22.27
2018-02-01T15:41:09.750Z,29.30
2018-02-01T15:43:38.508Z,21.80
2018-02-01T15:46:07.304Z,22.07
2018-02-01T15:48:37.867Z,23.73
2018-02-01T15:51:06.699Z,21.97
2018-02-01T15:53:35.468Z,21.97
2018-02-01T15:56:04.444Z,20.50
2018-02-01T15:58:33.228Z,23.70
2018-02-01T16:01:02.011Z,24.00
2018-02-01T16:03:31.013Z,23.47
2018-02-01T16:05:59.757Z,31.30
2018-02-01T16:08:28.507Z,29.20
2018-02-01T16:10:59.988Z,29.10
2018-02-01T16:13:28.769Z,29.50
2018-02-01T16:15:57.516Z,31.00
2018-02-01T16:18:30.644Z,33.43
2018-02-01T16:20:59.467Z,33.80
2018-02-01T16:23:28.192Z,33.67
2018-02-01T16:25:57.880Z,33.90
2018-02-01T16:28:28.567Z,31.23
2018-02-01T16:30:57.427Z,44.83
2018-02-01T16:33:27.425Z,43.30
2018-02-01T16:35:56.227Z,37.87
2018-02-01T16:38:25.013Z,35.57
2018-02-01T16:40:54.685Z,29.17
2018-02-01T16:43:27.558Z,28.30
2018-02-01T16:45:56.332Z,29.70
2018-02-01T16:48:25.082Z,32.50
2018-02-01T16:50:53.995Z,31.53
2018-02-01T16:53:22.917Z,32.00
2018-02-01T16:55:51.680Z,33.70
2018-02-01T16:58:20.549Z,33.50
2018-02-01T17:00:50.200Z,37.90
2018-02-01T17:03:18.951Z,38.70
2018-02-01T17:05:47.911Z,40.00
2018-02-01T17:08:18.524Z,37.40
2018-02-01T17:10:47.282Z,43.77
2018-02-01T17:13:16.077Z,46.80
2018-02-01T17:15:46.528Z,45.90
2018-02-01T17:18:19.081Z,49.37
2018-02-01T17:20:48.026Z,48.07
2018-02-01T17:23:18.218Z,51.57
2018-02-01T17:25:47.032Z,50.07
2018-02-01T17:28:15.948Z,40.93
2018-02-01T17:30:44.801Z,35.53
2018-02-01T17:33:13.522Z,38.03
2018-02-01T17:35:43.922Z,38.30
2018-02-01T17:38:16.894Z,44.13
2018-02-01T17:40:45.751Z,39.10
2018-02-01T17:43:17.896Z,39.80
2018-02-01T17:45:46.753Z,46.13
2018-02-01T17:48:15.610Z,47.03
2018-02-01T17:50:44.396Z,46.30
2018-02-01T17:53:13.238Z,44.60
2018-02-01T17:55:42.024Z,48.67
2018-02-01T17:58:10.833Z,52.90
2018-02-01T18:00:40.468Z,51.07
2018-02-01T18:03:09.239Z,48.03
2018-02-01T18:05:38.213Z,42.30
2018-02-01T18:08:07.049Z,39.20
2018-02-01T18:10:35.883Z,40.30
2018-02-01T18:13:04.683Z,37.07
2018-02-01T18:15:36.912Z,46.37
2018-02-01T18:18:05.702Z,46.80
2018-02-01T18:20:34.502Z,43.10
2018-02-01T18:23:04.331Z,36.03
2018-02-01T18:25:43.789Z,44.47
2018-02-01T18:28:14.470Z,48.20
2018-02-01T18:30:43.222Z,41.17
2018-02-01T18:33:12.101Z,42.73
2018-02-01T18:35:41.059Z,48.07
2018-02-01T18:38:09.862Z,39.20
2018-02-01T18:40:45.404Z,32.37
2018-02-01T18:43:18.658Z,31.97
2018-02-01T18:45:48.237Z,31.63
2018-02-01T18:48:17.029Z,54.27
2018-02-01T18:50:45.869Z,43.50
2018-02-01T18:53:14.690Z,31.07
2018-02-01T18:55:44.060Z,31.73
2018-02-01T18:58:12.847Z,30.37
2018-02-01T19:00:43.938Z,32.53
2018-02-01T19:03:13.061Z,36.27
2018-02-01T19:05:42.039Z,37.40
2018-02-01T19:08:11.259Z,31.00
2018-02-01T19:10:40.174Z,31.97
2018-02-01T19:13:09.012Z,29.80
2018-02-01T19:15:37.955Z,29.00
2018-02-01T19:18:06.798Z,29.83
2018-02-01T19:20:36.697Z,33.43
2018-02-01T19:23:06.556Z,32.17
2018-02-01T19:25:35.368Z,32.33
2018-02-01T19:28:04.256Z,32.50
2018-02-01T19:30:33.988Z,45.37
2018-02-01T19:33:02.852Z,38.27
2018-02-01T19:35:31.640Z,43.50
2018-02-01T19:38:00.713Z,40.27
2018-02-01T19:40:30.147Z,32.90
2018-02-01T19:42:58.967Z,26.50
2018-02-01T19:45:27.898Z,26.23
2018-02-01T19:47:56.823Z,24.60
2018-02-01T19:50:25.673Z,35.67
2018-02-01T19:52:55.749Z,27.07
2018-02-01T19:55:24.643Z,27.70
2018-02-01T19:57:53.425Z,27.33
2018-02-01T20:00:22.355Z,29.13
2018-02-01T20:02:51.201Z,31.80
2018-02-01T20:05:20.109Z,31.20
2018-02-01T20:07:50.686Z,35.00
2018-02-01T20:10:19.575Z,35.63
2018-02-01T20:12:48.368Z,32.23
2018-02-01T20:15:17.279Z,35.60
2018-02-01T20:17:47.832Z,39.87
2018-02-01T20:20:17.093Z,37.37
2018-02-01T20:25:20.303Z,32.77
2018-02-01T20:27:51.006Z,30.57
2018-02-01T20:30:19.792Z,31.17
2018-02-01T20:32:48.694Z,28.77
2018-02-01T20:35:17.639Z,30.17
2018-02-01T20:37:46.529Z,28.63
2018-02-01T20:40:15.383Z,29.10
2018-02-01T20:42:44.665Z,33.00
2018-02-01T20:45:13.481Z,31.23
2018-02-01T20:47:42.413Z,31.73
2018-02-01T20:50:11.267Z,30.30
2018-02-01T20:52:40.272Z,29.47
2018-02-01T20:55:09.087Z,30.90
2018-02-01T20:57:38.843Z,32.17
2018-02-01T21:00:07.651Z,33.30
2018-02-01T21:02:36.486Z,33.70
2018-02-01T21:05:05.682Z,32.53
2018-02-01T21:07:34.567Z,32.03
2018-02-01T21:10:03.415Z,34.50
2018-02-01T21:12:32.461Z,33.73
2018-02-01T21:15:01.300Z,38.20
2018-02-01T21:17:30.167Z,41.33
2018-02-01T21:20:03.750Z,41.57
2018-02-01T21:22:32.574Z,35.07
2018-02-01T21:25:01.359Z,37.20
2018-02-01T21:27:31.156Z,35.60
2018-02-01T21:29:59.952Z,36.90
2018-02-01T21:32:28.738Z,33.13
2018-02-01T21:34:57.657Z,40.17
2018-02-01T21:37:26.494Z,41.10
2018-02-01T21:39:55.670Z,41.00
2018-02-01T21:42:26.992Z,40.20
2018-02-01T21:44:55.894Z,38.87
2018-02-01T21:47:24.710Z,42.63
2018-02-01T21:49:55.204Z,40.60
2018-02-01T21:52:24.091Z,38.27
2018-02-01T21:54:52.965Z,37.87
2018-02-01T21:57:24.772Z,34.77
2018-02-01T21:59:53.664Z,34.53
2018-02-01T22:02:22.569Z,37.10
2018-02-01T22:04:53.325Z,38.53
2018-02-01T22:07:22.161Z,33.97
2018-02-01T22:09:51.265Z,38.53
2018-02-01T22:12:21.816Z,41.90
2018-02-01T22:14:53.253Z,45.77
2018-02-01T22:17:24.190Z,44.63
2018-02-01T22:19:55.030Z,41.80
2018-02-01T22:22:24.299Z,37.43
2018-02-01T22:24:53.286Z,36.10
2018-02-01T22:27:23.481Z,32.47
2018-02-01T22:29:52.615Z,33.40
2018-02-01T22:32:24.099Z,34.20
2018-02-01T22:34:54.116Z,30.77
2018-02-01T22:37:22.970Z,30.43
2018-02-01T22:39:53.751Z,27.10
2018-02-01T22:42:22.919Z,27.23
2018-02-01T22:44:51.941Z,27.83
2018-02-01T22:47:24.411Z,27.53
2018-02-01T22:49:54.432Z,24.20
2018-02-01T22:52:24.309Z,23.83
2018-02-01T22:54:53.340Z,23.77
2018-02-01T22:57:23.083Z,22.37
2018-02-01T22:59:52.305Z,21.43
2018-02-01T23:02:22.268Z,21.23
2018-02-01T23:04:52.179Z,20.50
2018-02-01T23:07:23.006Z,21.10
2018-02-01T23:09:52.607Z,20.17
2018-02-01T23:12:26.020Z,21.40
2018-02-01T23:14:56.418Z,21.33
2018-02-01T23:17:25.526Z,21.77
2018-02-01T23:19:58.946Z,21.50
2018-02-01T23:22:31.672Z,21.30
2018-02-01T23:25:01.653Z,20.33
2018-02-01T23:27:31.154Z,21.30
2018-02-01T23:30:00.473Z,20.33
2018-02-01T23:32:30.450Z,22.63
2018-02-01T23:35:00.669Z,23.20
2018-02-01T23:37:30.222Z,22.47
2018-02-01T23:40:02.168Z,24.10
2018-02-01T23:42:31.361Z,23.50
2018-02-01T23:45:00.558Z,24.83
2018-02-01T23:47:30.161Z,22.60
2018-02-01T23:49:59.227Z,22.37
2018-02-01T23:52:28.391Z,20.97
2018-02-01T23:54:59.842Z,20.17
2018-02-01T23:57:29.565Z,18.13
